sensor_id;sensor_type;location;lat;lon;timestamp;pressure;altitude;pressure_sealevel;temperature;humidity
37778;BME280;23615;51.506;7.678;2023-06-10T00:01:08;99866.56;;;19.36;76.68
37778;BME280;23615;51.506;7.678;2023-06-10T00:03:34;99863.91;;;19.31;76.81
37778;BME280;23615;51.506;7.678;2023-06-10T00:05:59;99863.91;;;19.31;76.45
37778;BME280;23615;51.506;7.678;2023-06-10T00:08:24;99863.97;;;19.26;76.89
37778;BME280;23615;51.506;7.678;2023-06-10T00:10:50;99869.97;;;19.18;77.19
37778;BME280;23615;51.506;7.678;2023-06-10T00:13:15;99876.22;;;19.13;77.22
37778;BME280;23615;51.506;7.678;2023-06-10T00:15:41;99875.19;;;19.09;77.33
37778;BME280;23615;51.506;7.678;2023-06-10T00:18:07;99870.34;;;19.06;77.41
37778;BME280;23615;51.506;7.678;2023-06-10T00:20:35;99871.44;;;19.05;77.24
37778;BME280;23615;51.506;7.678;2023-06-10T00:23:03;99874.09;;;19.10;76.91
37778;BME280;23615;51.506;7.678;2023-06-10T00:25:28;99866.56;;;19.07;77.09
37778;BME280;23615;51.506;7.678;2023-06-10T00:27:55;99869.25;;;19.07;77.02
37778;BME280;23615;51.506;7.678;2023-06-10T00:30:20;99871.41;;;19.10;77.23
37778;BME280;23615;51.506;7.678;2023-06-10T00:32:46;99870.00;;;19.13;77.58
37778;BME280;23615;51.506;7.678;2023-06-10T00:35:11;99870.06;;;19.08;77.46
37778;BME280;23615;51.506;7.678;2023-06-10T00:37:37;99862.59;;;18.94;78.11
37778;BME280;23615;51.506;7.678;2023-06-10T00:40:04;99864.81;;;18.87;78.24
37778;BME280;23615;51.506;7.678;2023-06-10T00:42:29;99864.28;;;18.85;78.29
37778;BME280;23615;51.506;7.678;2023-06-10T00:44:55;99870.22;;;18.87;78.22
37778;BME280;23615;51.506;7.678;2023-06-10T00:47:21;99869.38;;;18.92;77.98
37778;BME280;23615;51.506;7.678;2023-06-10T00:49:48;99865.59;;;18.93;78.08
37778;BME280;23615;51.506;7.678;2023-06-10T00:52:14;99854.59;;;18.84;78.15
37778;BME280;23615;51.506;7.678;2023-06-10T00:54:41;99861.63;;;18.80;78.57
37778;BME280;23615;51.506;7.678;2023-06-10T00:57:06;99858.19;;;18.69;78.97
37778;BME280;23615;51.506;7.678;2023-06-10T00:59:32;99871.16;;;18.67;78.86
37778;BME280;23615;51.506;7.678;2023-06-10T01:01:57;99869.53;;;18.66;78.67
37778;BME280;23615;51.506;7.678;2023-06-10T01:04:23;99869.81;;;18.70;78.08
37778;BME280;23615;51.506;7.678;2023-06-10T01:09:44;99864.94;;;18.67;79.00
37778;BME280;23615;51.506;7.678;2023-06-10T01:14:46;99871.50;;;18.51;79.68
37778;BME280;23615;51.506;7.678;2023-06-10T01:17:14;99871.03;;;18.44;79.70
37778;BME280;23615;51.506;7.678;2023-06-10T01:19:41;99871.28;;;18.42;79.81
37778;BME280;23615;51.506;7.678;2023-06-10T01:22:09;99878.34;;;18.38;79.95
37778;BME280;23615;51.506;7.678;2023-06-10T01:24:36;99878.63;;;18.37;79.96
37778;BME280;23615;51.506;7.678;2023-06-10T01:27:05;99884.03;;;18.31;80.21
37778;BME280;23615;51.506;7.678;2023-06-10T01:29:44;99879.22;;;18.28;80.37
37778;BME280;23615;51.506;7.678;2023-06-10T01:32:50;99885.16;;;18.25;80.71
37778;BME280;23615;51.506;7.678;2023-06-10T01:35:16;99883.00;;;18.22;80.75
37778;BME280;23615;51.506;7.678;2023-06-10T01:37:45;99885.69;;;18.22;80.50
37778;BME280;23615;51.506;7.678;2023-06-10T01:40:11;99880.06;;;18.19;80.48
37778;BME280;23615;51.506;7.678;2023-06-10T01:42:37;99887.09;;;18.15;80.61
37778;BME280;23615;51.506;7.678;2023-06-10T01:45:03;99881.16;;;18.13;80.13
37778;BME280;23615;51.506;7.678;2023-06-10T01:47:28;99882.25;;;18.07;80.37
37778;BME280;23615;51.506;7.678;2023-06-10T01:49:54;99886.31;;;18.04;80.41
37778;BME280;23615;51.506;7.678;2023-06-10T01:52:19;99879.59;;;18.02;80.69
37778;BME280;23615;51.506;7.678;2023-06-10T01:54:45;99879.31;;;17.98;80.87
37778;BME280;23615;51.506;7.678;2023-06-10T01:57:10;99880.72;;;17.90;80.80
37778;BME280;23615;51.506;7.678;2023-06-10T01:59:35;99889.63;;;17.86;81.11
37778;BME280;23615;51.506;7.678;2023-06-10T02:02:03;99874.25;;;17.81;80.87
37778;BME280;23615;51.506;7.678;2023-06-10T02:04:28;99885.06;;;17.71;81.41
37778;BME280;23615;51.506;7.678;2023-06-10T02:06:53;99884.25;;;17.61;81.46
37778;BME280;23615;51.506;7.678;2023-06-10T02:09:21;99883.44;;;17.60;81.62
37778;BME280;23615;51.506;7.678;2023-06-10T02:11:48;99882.13;;;17.63;81.44
37778;BME280;23615;51.506;7.678;2023-06-10T02:14:16;99882.94;;;17.53;81.42
37778;BME280;23615;51.506;7.678;2023-06-10T02:16:41;99883.19;;;17.51;81.56
37778;BME280;23615;51.506;7.678;2023-06-10T02:19:06;99880.25;;;17.43;81.86
37778;BME280;23615;51.506;7.678;2023-06-10T02:21:32;99877.81;;;17.41;81.63
37778;BME280;23615;51.506;7.678;2023-06-10T02:23:59;99881.31;;;17.42;81.44
37778;BME280;23615;51.506;7.678;2023-06-10T02:26:25;99885.13;;;17.36;81.78
37778;BME280;23615;51.506;7.678;2023-06-10T02:28:51;99885.91;;;17.36;81.51
37778;BME280;23615;51.506;7.678;2023-06-10T02:31:16;99884.31;;;17.35;81.43
37778;BME280;23615;51.506;7.678;2023-06-10T02:33:43;99885.66;;;17.33;81.38
37778;BME280;23615;51.506;7.678;2023-06-10T02:36:09;99886.44;;;17.23;81.79
37778;BME280;23615;51.506;7.678;2023-06-10T02:38:38;99881.63;;;17.20;81.74
37778;BME280;23615;51.506;7.678;2023-06-10T02:41:03;99883.50;;;17.19;81.89
37778;BME280;23615;51.506;7.678;2023-06-10T02:43:28;99879.97;;;17.04;82.58
37778;BME280;23615;51.506;7.678;2023-06-10T02:45:54;99881.34;;;16.96;82.73
37778;BME280;23615;51.506;7.678;2023-06-10T02:48:19;99883.50;;;16.89;83.32
37778;BME280;23615;51.506;7.678;2023-06-10T02:50:44;99890.22;;;16.87;83.37
37778;BME280;23615;51.506;7.678;2023-06-10T02:53:10;99895.88;;;16.85;83.36
37778;BME280;23615;51.506;7.678;2023-06-10T02:55:35;99889.16;;;16.82;83.76
37778;BME280;23615;51.506;7.678;2023-06-10T02:58:01;99889.13;;;16.77;83.32
37778;BME280;23615;51.506;7.678;2023-06-10T03:00:27;99889.94;;;16.78;83.65
37778;BME280;23615;51.506;7.678;2023-06-10T03:02:53;99892.09;;;16.76;83.39
37778;BME280;23615;51.506;7.678;2023-06-10T03:05:22;99893.16;;;16.70;83.57
37778;BME280;23615;51.506;7.678;2023-06-10T03:07:48;99894.72;;;16.61;84.24
37778;BME280;23615;51.506;7.678;2023-06-10T03:10:15;99888.78;;;16.59;84.11
37778;BME280;23615;51.506;7.678;2023-06-10T03:12:40;99890.41;;;16.60;84.06
37778;BME280;23615;51.506;7.678;2023-06-10T03:15:06;99902.56;;;16.67;83.46
37778;BME280;23615;51.506;7.678;2023-06-10T03:17:31;99889.91;;;16.63;83.41
37778;BME280;23615;51.506;7.678;2023-06-10T03:19:57;99897.69;;;16.59;83.19
37778;BME280;23615;51.506;7.678;2023-06-10T03:22:22;99901.97;;;16.50;83.46
37778;BME280;23615;51.506;7.678;2023-06-10T03:24:47;99898.97;;;16.41;84.05
37778;BME280;23615;51.506;7.678;2023-06-10T03:27:15;99897.91;;;16.37;84.20
37778;BME280;23615;51.506;7.678;2023-06-10T03:29:41;99897.63;;;16.39;84.38
37778;BME280;23615;51.506;7.678;2023-06-10T03:32:07;99904.38;;;16.41;84.38
37778;BME280;23615;51.506;7.678;2023-06-10T03:34:33;99910.00;;;16.40;84.45
37778;BME280;23615;51.506;7.678;2023-06-10T03:36:58;99904.63;;;16.40;84.34
37778;BME280;23615;51.506;7.678;2023-06-10T03:39:25;99910.31;;;16.43;84.59
37778;BME280;23615;51.506;7.678;2023-06-10T03:41:50;99910.84;;;16.45;84.37
37778;BME280;23615;51.506;7.678;2023-06-10T03:44:16;99917.31;;;16.44;84.21
37778;BME280;23615;51.506;7.678;2023-06-10T03:46:41;99921.63;;;16.45;84.39
37778;BME280;23615;51.506;7.678;2023-06-10T03:49:07;99925.91;;;16.41;84.57
37778;BME280;23615;51.506;7.678;2023-06-10T03:51:32;99927.53;;;16.42;84.86
37778;BME280;23615;51.506;7.678;2023-06-10T03:53:58;99928.88;;;16.40;85.19
37778;BME280;23615;51.506;7.678;2023-06-10T03:56:23;99921.84;;;16.39;85.47
37778;BME280;23615;51.506;7.678;2023-06-10T03:58:49;99921.34;;;16.42;85.64
37778;BME280;23615;51.506;7.678;2023-06-10T04:01:14;99926.16;;;16.40;85.68
37778;BME280;23615;51.506;7.678;2023-06-10T04:03:39;99922.66;;;16.39;86.03
37778;BME280;23615;51.506;7.678;2023-06-10T04:06:07;99919.16;;;16.39;86.35
37778;BME280;23615;51.506;7.678;2023-06-10T04:08:32;99917.56;;;16.43;86.27
37778;BME280;23615;51.506;7.678;2023-06-10T04:10:58;99919.75;;;16.46;86.39
37778;BME280;23615;51.506;7.678;2023-06-10T04:13:23;99916.78;;;16.53;86.61
37778;BME280;23615;51.506;7.678;2023-06-10T04:15:48;99925.19;;;16.61;86.29
37778;BME280;23615;51.506;7.678;2023-06-10T04:18:14;99923.88;;;16.69;85.98
37778;BME280;23615;51.506;7.678;2023-06-10T04:20:40;99928.47;;;16.78;85.61
37778;BME280;23615;51.506;7.678;2023-06-10T04:23:05;99933.34;;;16.87;85.57
37778;BME280;23615;51.506;7.678;2023-06-10T04:25:30;99924.72;;;16.90;85.38
37778;BME280;23615;51.506;7.678;2023-06-10T04:27:56;99936.06;;;16.97;85.19
37778;BME280;23615;51.506;7.678;2023-06-10T04:30:21;99929.56;;;17.03;85.03
37778;BME280;23615;51.506;7.678;2023-06-10T04:32:47;99928.78;;;17.02;84.79
37778;BME280;23615;51.506;7.678;2023-06-10T04:35:12;99937.69;;;17.08;84.70
37778;BME280;23615;51.506;7.678;2023-06-10T04:37:39;99940.09;;;17.14;83.92
37778;BME280;23615;51.506;7.678;2023-06-10T04:40:06;99937.44;;;17.19;83.28
37778;BME280;23615;51.506;7.678;2023-06-10T04:42:31;99941.47;;;17.27;83.11
37778;BME280;23615;51.506;7.678;2023-06-10T04:44:56;99946.84;;;17.32;83.11
37778;BME280;23615;51.506;7.678;2023-06-10T04:47:22;99932.84;;;17.35;82.72
37778;BME280;23615;51.506;7.678;2023-06-10T04:49:47;99942.28;;;17.38;82.10
37778;BME280;23615;51.506;7.678;2023-06-10T04:52:13;99944.72;;;17.44;81.64
37778;BME280;23615;51.506;7.678;2023-06-10T04:54:39;99940.38;;;17.53;81.64
37778;BME280;23615;51.506;7.678;2023-06-10T04:57:04;99942.00;;;17.54;80.76
37778;BME280;23615;51.506;7.678;2023-06-10T04:59:31;99947.94;;;17.62;80.47
37778;BME280;23615;51.506;7.678;2023-06-10T05:01:57;99943.34;;;17.67;80.02
37778;BME280;23615;51.506;7.678;2023-06-10T05:04:22;99943.63;;;17.71;79.74
37778;BME280;23615;51.506;7.678;2023-06-10T05:06:47;99941.47;;;17.73;79.57
37778;BME280;23615;51.506;7.678;2023-06-10T05:09:12;99944.97;;;17.78;79.17
37778;BME280;23615;51.506;7.678;2023-06-10T05:11:38;99940.66;;;17.82;78.87
37778;BME280;23615;51.506;7.678;2023-06-10T05:14:03;99943.06;;;17.89;78.56
37778;BME280;23615;51.506;7.678;2023-06-10T05:16:29;99939.25;;;17.95;78.47
37778;BME280;23615;51.506;7.678;2023-06-10T05:18:54;99939.81;;;17.97;78.57
37778;BME280;23615;51.506;7.678;2023-06-10T05:21:19;99944.63;;;18.05;78.97
37778;BME280;23615;51.506;7.678;2023-06-10T05:23:45;99946.78;;;18.08;78.64
37778;BME280;23615;51.506;7.678;2023-06-10T05:26:11;99943.53;;;18.16;78.98
37778;BME280;23615;51.506;7.678;2023-06-10T05:28:36;99950.00;;;18.20;79.19
37778;BME280;23615;51.506;7.678;2023-06-10T05:31:02;99949.72;;;18.27;78.53
37778;BME280;23615;51.506;7.678;2023-06-10T05:33:28;99940.25;;;18.29;78.42
37778;BME280;23615;51.506;7.678;2023-06-10T05:35:53;99952.09;;;18.33;78.02
37778;BME280;23615;51.506;7.678;2023-06-10T05:38:18;99942.34;;;18.43;77.62
37778;BME280;23615;51.506;7.678;2023-06-10T05:40:44;99948.00;;;18.46;77.80
37778;BME280;23615;51.506;7.678;2023-06-10T05:43:09;99946.34;;;18.55;77.96
37778;BME280;23615;51.506;7.678;2023-06-10T05:45:36;99946.88;;;18.57;78.36
37778;BME280;23615;51.506;7.678;2023-06-10T05:48:02;99942.56;;;18.61;78.16
37778;BME280;23615;51.506;7.678;2023-06-10T05:50:27;99945.53;;;18.65;78.11
37778;BME280;23615;51.506;7.678;2023-06-10T05:52:53;99949.03;;;18.65;77.85
37778;BME280;23615;51.506;7.678;2023-06-10T05:55:20;99950.88;;;18.75;77.84
37778;BME280;23615;51.506;7.678;2023-06-10T05:57:45;99949.75;;;18.81;79.76
37778;BME280;23615;51.506;7.678;2023-06-10T06:00:11;99947.56;;;18.83;80.37
37778;BME280;23615;51.506;7.678;2023-06-10T06:02:36;99957.00;;;18.91;79.77
37778;BME280;23615;51.506;7.678;2023-06-10T06:05:02;99962.66;;;18.89;79.59
37778;BME280;23615;51.506;7.678;2023-06-10T06:07:27;99956.13;;;18.95;79.51
37778;BME280;23615;51.506;7.678;2023-06-10T06:09:52;99962.06;;;18.97;79.29
37778;BME280;23615;51.506;7.678;2023-06-10T06:12:18;99959.63;;;19.01;78.94
37778;BME280;23615;51.506;7.678;2023-06-10T06:14:43;99957.75;;;19.01;79.02
37778;BME280;23615;51.506;7.678;2023-06-10T06:17:09;99956.06;;;19.05;78.81
37778;BME280;23615;51.506;7.678;2023-06-10T06:19:35;99951.72;;;19.10;78.17
37778;BME280;23615;51.506;7.678;2023-06-10T06:22:06;99966.81;;;19.16;78.22
37778;BME280;23615;51.506;7.678;2023-06-10T06:24:31;99966.00;;;19.20;77.86
37778;BME280;23615;51.506;7.678;2023-06-10T06:26:57;99962.75;;;19.18;77.38
37778;BME280;23615;51.506;7.678;2023-06-10T06:29:22;99960.06;;;19.13;77.60
37778;BME280;23615;51.506;7.678;2023-06-10T06:31:47;99960.84;;;19.19;77.88
37778;BME280;23615;51.506;7.678;2023-06-10T06:34:13;99951.59;;;19.25;77.77
37778;BME280;23615;51.506;7.678;2023-06-10T06:36:38;99958.03;;;19.34;77.74
37778;BME280;23615;51.506;7.678;2023-06-10T06:39:03;99959.03;;;19.43;77.35
37778;BME280;23615;51.506;7.678;2023-06-10T06:41:29;99953.03;;;19.51;77.23
37778;BME280;23615;51.506;7.678;2023-06-10T06:43:54;99964.66;;;19.57;77.43
37778;BME280;23615;51.506;7.678;2023-06-10T06:46:20;99964.03;;;19.65;76.90
37778;BME280;23615;51.506;7.678;2023-06-10T06:48:47;99962.88;;;19.71;77.35
37778;BME280;23615;51.506;7.678;2023-06-10T06:51:12;99962.50;;;19.83;76.83
37778;BME280;23615;51.506;7.678;2023-06-10T06:53:38;99971.38;;;19.88;77.49
37778;BME280;23615;51.506;7.678;2023-06-10T06:56:09;99961.00;;;19.95;76.75
37778;BME280;23615;51.506;7.678;2023-06-10T06:58:34;99963.69;;;20.00;76.84
37778;BME280;23615;51.506;7.678;2023-06-10T07:01:00;99957.38;;;20.05;76.61
37778;BME280;23615;51.506;7.678;2023-06-10T07:03:25;99963.41;;;20.02;76.89
37778;BME280;23615;51.506;7.678;2023-06-10T07:05:51;99966.50;;;20.14;76.61
37778;BME280;23615;51.506;7.678;2023-06-10T07:08:16;99960.97;;;20.24;75.79
37778;BME280;23615;51.506;7.678;2023-06-10T07:10:41;99966.34;;;20.29;75.58
37778;BME280;23615;51.506;7.678;2023-06-10T07:13:07;99964.94;;;20.37;75.46
37778;BME280;23615;51.506;7.678;2023-06-10T07:15:32;99966.44;;;20.48;75.30
37778;BME280;23615;51.506;7.678;2023-06-10T07:17:58;99963.34;;;20.54;74.95
37778;BME280;23615;51.506;7.678;2023-06-10T07:20:23;99971.06;;;20.66;74.52
37778;BME280;23615;51.506;7.678;2023-06-10T07:22:49;99966.09;;;20.73;74.42
37778;BME280;23615;51.506;7.678;2023-06-10T07:25:14;99964.53;;;20.86;74.15
37778;BME280;23615;51.506;7.678;2023-06-10T07:27:40;99969.63;;;20.92;73.82
37778;BME280;23615;51.506;7.678;2023-06-10T07:30:07;99971.97;;;20.99;72.83
37778;BME280;23615;51.506;7.678;2023-06-10T07:32:33;99980.00;;;21.04;73.59
37778;BME280;23615;51.506;7.678;2023-06-10T07:34:58;99983.38;;;21.15;74.48
37778;BME280;23615;51.506;7.678;2023-06-10T07:37:24;99971.88;;;21.23;74.65
37778;BME280;23615;51.506;7.678;2023-06-10T07:39:49;99982.25;;;21.21;74.45
37778;BME280;23615;51.506;7.678;2023-06-10T07:42:15;99974.25;;;21.30;74.06
37778;BME280;23615;51.506;7.678;2023-06-10T07:44:40;99979.28;;;21.36;73.67
37778;BME280;23615;51.506;7.678;2023-06-10T07:47:06;99974.88;;;21.40;73.45
37778;BME280;23615;51.506;7.678;2023-06-10T07:49:31;99975.50;;;21.51;73.76
37778;BME280;23615;51.506;7.678;2023-06-10T07:51:57;99978.59;;;21.63;73.95
37778;BME280;23615;51.506;7.678;2023-06-10T07:54:22;99983.44;;;21.66;73.88
37778;BME280;23615;51.506;7.678;2023-06-10T07:56:47;99971.38;;;21.72;73.52
37778;BME280;23615;51.506;7.678;2023-06-10T07:59:13;99983.31;;;21.71;73.26
37778;BME280;23615;51.506;7.678;2023-06-10T08:01:39;99981.94;;;21.87;72.41
37778;BME280;23615;51.506;7.678;2023-06-10T08:04:05;99988.19;;;21.88;72.62
37778;BME280;23615;51.506;7.678;2023-06-10T08:06:30;99984.22;;;21.99;72.22
37778;BME280;23615;51.506;7.678;2023-06-10T08:08:56;99975.06;;;22.09;72.02
37778;BME280;23615;51.506;7.678;2023-06-10T08:11:21;99976.28;;;22.16;71.51
37778;BME280;23615;51.506;7.678;2023-06-10T08:13:46;99974.47;;;22.25;71.13
37778;BME280;23615;51.506;7.678;2023-06-10T08:16:12;99974.28;;;22.35;71.80
37778;BME280;23615;51.506;7.678;2023-06-10T08:18:37;99977.09;;;22.44;71.64
37778;BME280;23615;51.506;7.678;2023-06-10T08:21:02;99977.31;;;22.48;71.01
37778;BME280;23615;51.506;7.678;2023-06-10T08:23:27;99982.31;;;22.54;70.51
37778;BME280;23615;51.506;7.678;2023-06-10T08:25:53;99985.13;;;22.49;70.31
37778;BME280;23615;51.506;7.678;2023-06-10T08:28:18;99987.03;;;22.62;70.27
37778;BME280;23615;51.506;7.678;2023-06-10T08:30:44;99980.38;;;22.68;71.31
37778;BME280;23615;51.506;7.678;2023-06-10T08:33:09;99991.97;;;22.88;71.87
37778;BME280;23615;51.506;7.678;2023-06-10T08:35:35;99990.63;;;22.99;70.79
37778;BME280;23615;51.506;7.678;2023-06-10T08:38:00;99984.59;;;23.02;70.54
37778;BME280;23615;51.506;7.678;2023-06-10T08:40:25;99978.72;;;23.08;70.02
37778;BME280;23615;51.506;7.678;2023-06-10T08:43:06;99984.72;;;23.19;69.62
37778;BME280;23615;51.506;7.678;2023-06-10T08:45:35;99982.06;;;23.28;69.78
37778;BME280;23615;51.506;7.678;2023-06-10T08:48:02;99993.84;;;23.37;70.00
37778;BME280;23615;51.506;7.678;2023-06-10T08:50:34;99981.41;;;23.44;69.19
37778;BME280;23615;51.506;7.678;2023-06-10T08:53:00;99974.03;;;23.45;68.34
37778;BME280;23615;51.506;7.678;2023-06-10T08:55:35;99987.13;;;23.57;67.97
37778;BME280;23615;51.506;7.678;2023-06-10T08:58:01;99980.63;;;23.66;68.65
37778;BME280;23615;51.506;7.678;2023-06-10T09:00:27;99981.84;;;23.82;68.76
37778;BME280;23615;51.506;7.678;2023-06-10T09:02:54;99983.50;;;23.92;67.46
37778;BME280;23615;51.506;7.678;2023-06-10T09:05:20;99989.78;;;24.01;66.87
37778;BME280;23615;51.506;7.678;2023-06-10T09:07:46;99982.72;;;24.00;67.03
37778;BME280;23615;51.506;7.678;2023-06-10T09:10:12;99985.53;;;24.17;66.71
37778;BME280;23615;51.506;7.678;2023-06-10T09:12:37;99989.28;;;24.21;66.73
37778;BME280;23615;51.506;7.678;2023-06-10T09:15:04;99970.66;;;24.23;68.43
37778;BME280;23615;51.506;7.678;2023-06-10T09:17:29;99981.50;;;24.46;67.66
37778;BME280;23615;51.506;7.678;2023-06-10T09:19:55;99978.59;;;24.51;66.90
37778;BME280;23615;51.506;7.678;2023-06-10T09:22:22;99983.28;;;24.59;66.68
37778;BME280;23615;51.506;7.678;2023-06-10T09:24:48;99978.31;;;24.61;66.29
37778;BME280;23615;51.506;7.678;2023-06-10T09:27:13;99976.88;;;24.64;64.82
37778;BME280;23615;51.506;7.678;2023-06-10T09:29:52;99987.19;;;24.84;64.32
37778;BME280;23615;51.506;7.678;2023-06-10T09:32:19;99982.53;;;24.84;63.33
37778;BME280;23615;51.506;7.678;2023-06-10T09:34:45;99979.31;;;24.91;63.97
37778;BME280;23615;51.506;7.678;2023-06-10T09:37:11;99983.22;;;24.98;64.12
37778;BME280;23615;51.506;7.678;2023-06-10T09:39:39;99971.97;;;25.09;62.75
37778;BME280;23615;51.506;7.678;2023-06-10T09:42:25;99978.25;;;25.18;62.99
37778;BME280;23615;51.506;7.678;2023-06-10T09:44:51;99980.66;;;25.28;63.36
37778;BME280;23615;51.506;7.678;2023-06-10T09:47:21;99981.94;;;25.39;62.75
37778;BME280;23615;51.506;7.678;2023-06-10T09:49:47;99976.59;;;25.51;63.38
37778;BME280;23615;51.506;7.678;2023-06-10T09:52:13;99971.63;;;25.53;62.61
37778;BME280;23615;51.506;7.678;2023-06-10T09:54:38;99972.44;;;25.62;63.49
37778;BME280;23615;51.506;7.678;2023-06-10T09:57:07;99980.00;;;25.65;62.34
37778;BME280;23615;51.506;7.678;2023-06-10T09:59:33;99966.47;;;25.69;62.56
37778;BME280;23615;51.506;7.678;2023-06-10T10:02:33;99966.28;;;25.83;61.88
37778;BME280;23615;51.506;7.678;2023-06-10T10:05:59;99977.66;;;26.02;62.97
37778;BME280;23615;51.506;7.678;2023-06-10T10:08:28;99957.66;;;26.10;61.76
37778;BME280;23615;51.506;7.678;2023-06-10T10:10:53;99961.75;;;26.25;61.44
37778;BME280;23615;51.506;7.678;2023-06-10T10:13:20;99963.31;;;26.43;62.68
37778;BME280;23615;51.506;7.678;2023-06-10T10:15:46;99957.88;;;26.34;61.18
37778;BME280;23615;51.506;7.678;2023-06-10T10:18:14;99963.25;;;26.52;62.30
37778;BME280;23615;51.506;7.678;2023-06-10T10:20:46;99953.53;;;26.63;60.71
37778;BME280;23615;51.506;7.678;2023-06-10T10:23:19;99957.41;;;26.62;60.46
37778;BME280;23615;51.506;7.678;2023-06-10T10:25:51;99958.16;;;26.71;60.81
37778;BME280;23615;51.506;7.678;2023-06-10T10:28:20;99954.88;;;26.77;59.99
37778;BME280;23615;51.506;7.678;2023-06-10T10:30:49;99958.81;;;26.89;60.64
37778;BME280;23615;51.506;7.678;2023-06-10T10:33:42;99950.25;;;26.99;61.27
37778;BME280;23615;51.506;7.678;2023-06-10T10:36:11;99958.38;;;27.07;61.17
37778;BME280;23615;51.506;7.678;2023-06-10T10:38:37;99950.56;;;26.97;61.90
37778;BME280;23615;51.506;7.678;2023-06-10T10:41:04;99953.16;;;27.14;60.58
37778;BME280;23615;51.506;7.678;2023-06-10T10:43:30;99951.28;;;27.27;60.59
37778;BME280;23615;51.506;7.678;2023-06-10T10:46:00;99951.69;;;27.38;60.58
37778;BME280;23615;51.506;7.678;2023-06-10T10:48:26;99948.06;;;27.46;59.98
37778;BME280;23615;51.506;7.678;2023-06-10T10:50:57;99945.38;;;27.58;60.18
37778;BME280;23615;51.506;7.678;2023-06-10T10:53:24;99941.63;;;27.63;59.33
37778;BME280;23615;51.506;7.678;2023-06-10T10:56:04;99947.00;;;27.71;58.48
37778;BME280;23615;51.506;7.678;2023-06-10T10:58:30;99948.28;;;27.74;59.26
37778;BME280;23615;51.506;7.678;2023-06-10T11:00:57;99949.97;;;27.78;60.11
37778;BME280;23615;51.506;7.678;2023-06-10T11:03:28;99947.50;;;27.85;59.17
37778;BME280;23615;51.506;7.678;2023-06-10T11:05:57;99940.41;;;27.97;58.03
37778;BME280;23615;51.506;7.678;2023-06-10T11:10:57;99947.97;;;28.00;59.03
37778;BME280;23615;51.506;7.678;2023-06-10T11:13:25;99940.41;;;27.97;57.29
37778;BME280;23615;51.506;7.678;2023-06-10T11:15:51;99947.91;;;28.20;57.42
37778;BME280;23615;51.506;7.678;2023-06-10T11:18:23;99942.06;;;28.22;56.85
37778;BME280;23615;51.506;7.678;2023-06-10T11:26:18;99927.97;;;28.23;56.52
37778;BME280;23615;51.506;7.678;2023-06-10T11:31:19;99927.53;;;28.21;57.24
37778;BME280;23615;51.506;7.678;2023-06-10T11:33:46;99929.25;;;28.26;56.39
37778;BME280;23615;51.506;7.678;2023-06-10T11:36:12;99927.84;;;28.32;56.61
37778;BME280;23615;51.506;7.678;2023-06-10T11:38:43;99917.34;;;28.34;56.09
37778;BME280;23615;51.506;7.678;2023-06-10T11:41:10;99918.28;;;28.38;57.01
37778;BME280;23615;51.506;7.678;2023-06-10T11:43:36;99907.97;;;28.35;57.07
37778;BME280;23615;51.506;7.678;2023-06-10T11:46:01;99908.97;;;28.43;57.47
37778;BME280;23615;51.506;7.678;2023-06-10T11:48:27;99914.81;;;28.53;56.64
37778;BME280;23615;51.506;7.678;2023-06-10T11:50:55;99915.13;;;28.64;55.98
37778;BME280;23615;51.506;7.678;2023-06-10T11:53:20;99905.63;;;28.61;55.96
37778;BME280;23615;51.506;7.678;2023-06-10T11:55:47;99908.03;;;28.63;54.86
37778;BME280;23615;51.506;7.678;2023-06-10T11:58:20;99911.56;;;28.76;55.09
37778;BME280;23615;51.506;7.678;2023-06-10T12:00:53;99908.41;;;29.01;54.86
37778;BME280;23615;51.506;7.678;2023-06-10T12:03:20;99912.50;;;29.08;56.23
37778;BME280;23615;51.506;7.678;2023-06-10T12:06:01;99909.38;;;29.21;54.40
37778;BME280;23615;51.506;7.678;2023-06-10T12:08:27;99908.22;;;29.22;53.67
37778;BME280;23615;51.506;7.678;2023-06-10T12:10:53;99904.56;;;29.18;52.77
37778;BME280;23615;51.506;7.678;2023-06-10T12:13:18;99900.84;;;29.26;52.94
37778;BME280;23615;51.506;7.678;2023-06-10T12:15:44;99898.06;;;29.38;54.41
37778;BME280;23615;51.506;7.678;2023-06-10T12:18:36;99898.53;;;29.41;53.34
37778;BME280;23615;51.506;7.678;2023-06-10T12:21:02;99894.72;;;29.45;52.21
37778;BME280;23615;51.506;7.678;2023-06-10T12:23:28;99894.09;;;29.52;52.45
37778;BME280;23615;51.506;7.678;2023-06-10T12:25:55;99899.41;;;29.45;52.47
37778;BME280;23615;51.506;7.678;2023-06-10T12:28:24;99896.41;;;29.50;51.93
37778;BME280;23615;51.506;7.678;2023-06-10T12:30:50;99890.28;;;29.56;51.03
37778;BME280;23615;51.506;7.678;2023-06-10T12:33:19;99888.97;;;29.66;50.97
37778;BME280;23615;51.506;7.678;2023-06-10T12:35:52;99886.66;;;29.68;51.13
37778;BME280;23615;51.506;7.678;2023-06-10T12:38:25;99890.28;;;29.72;51.49
37778;BME280;23615;51.506;7.678;2023-06-10T12:40:54;99887.03;;;29.66;52.47
37778;BME280;23615;51.506;7.678;2023-06-10T12:43:22;99894.19;;;29.71;51.93
37778;BME280;23615;51.506;7.678;2023-06-10T12:45:48;99884.53;;;29.77;51.41
37778;BME280;23615;51.506;7.678;2023-06-10T12:48:24;99880.78;;;29.69;50.37
37778;BME280;23615;51.506;7.678;2023-06-10T12:50:56;99884.25;;;29.82;51.94
37778;BME280;23615;51.506;7.678;2023-06-10T12:53:23;99878.56;;;29.91;52.03
37778;BME280;23615;51.506;7.678;2023-06-10T12:55:49;99879.50;;;29.95;52.81
37778;BME280;23615;51.506;7.678;2023-06-10T12:58:14;99883.75;;;29.76;52.48
37778;BME280;23615;51.506;7.678;2023-06-10T13:00:40;99872.97;;;29.87;51.97
37778;BME280;23615;51.506;7.678;2023-06-10T13:03:07;99876.47;;;30.00;51.34
37778;BME280;23615;51.506;7.678;2023-06-10T13:05:33;99875.66;;;29.99;51.06
37778;BME280;23615;51.506;7.678;2023-06-10T13:07:59;99867.56;;;29.91;51.01
37778;BME280;23615;51.506;7.678;2023-06-10T13:10:24;99874.16;;;29.86;50.69
37778;BME280;23615;51.506;7.678;2023-06-10T13:12:50;99878.13;;;29.89;49.98
37778;BME280;23615;51.506;7.678;2023-06-10T13:15:16;99872.81;;;29.80;50.77